sensor_id;sensor_type;location;lat;lon;timestamp;pressure;altitude;pressure_sealevel;temperature;humidity
71716;BME280;59568;52.128;5.434;2022-11-20T00:01:14;101579.31;;;-3.41;88.15
71716;BME280;59568;52.128;5.434;2022-11-20T00:03:42;101584.59;;;-3.42;87.83
71716;BME280;59568;52.128;5.434;2022-11-20T00:06:15;101573.13;;;-3.46;88.11
71716;BME280;59568;52.128;5.434;2022-11-20T00:08:42;101569.78;;;-3.47;87.98
71716;BME280;59568;52.128;5.434;2022-11-20T00:11:17;101570.78;;;-3.48;88.01
71716;BME280;59568;52.128;5.434;2022-11-20T00:13:46;101569.97;;;-3.48;87.83
71716;BME280;59568;52.128;5.434;2022-11-20T00:16:15;101565.22;;;-3.51;87.95
71716;BME280;59568;52.128;5.434;2022-11-20T00:18:43;101571.47;;;-3.54;87.75
71716;BME280;59568;52.128;5.434;2022-11-20T00:21:15;101564.94;;;-3.56;88.04
71716;BME280;59568;52.128;5.434;2022-11-20T00:23:43;101559.19;;;-3.58;87.80
71716;BME280;59568;52.128;5.434;2022-11-20T00:26:14;101566.84;;;-3.58;87.91
71716;BME280;59568;52.128;5.434;2022-11-20T00:28:42;101561.75;;;-3.58;87.98
71716;BME280;59568;52.128;5.434;2022-11-20T00:31:15;101565.91;;;-3.57;88.25
71716;BME280;59568;52.128;5.434;2022-11-20T00:33:43;101568.63;;;-3.59;88.49
71716;BME280;59568;52.128;5.434;2022-11-20T00:36:18;101557.63;;;-3.59;88.43
71716;BME280;59568;52.128;5.434;2022-11-20T00:38:45;101561.94;;;-3.60;88.22
71716;BME280;59568;52.128;5.434;2022-11-20T00:41:15;101556.03;;;-3.61;88.12
71716;BME280;59568;52.128;5.434;2022-11-20T00:43:43;101557.78;;;-3.61;88.50
71716;BME280;59568;52.128;5.434;2022-11-20T00:46:13;101557.16;;;-3.63;88.50
71716;BME280;59568;52.128;5.434;2022-11-20T00:48:41;101560.69;;;-3.64;88.22
71716;BME280;59568;52.128;5.434;2022-11-20T00:51:08;101560.88;;;-3.66;88.17
71716;BME280;59568;52.128;5.434;2022-11-20T00:53:35;101550.81;;;-3.67;88.59
71716;BME280;59568;52.128;5.434;2022-11-20T00:56:04;101547.94;;;-3.64;88.52
71716;BME280;59568;52.128;5.434;2022-11-20T00:58:34;101548.72;;;-3.64;88.63
71716;BME280;59568;52.128;5.434;2022-11-20T01:01:04;101539.81;;;-3.68;88.61
71716;BME280;59568;52.128;5.434;2022-11-20T01:03:34;101543.69;;;-3.72;88.64
71716;BME280;59568;52.128;5.434;2022-11-20T01:06:04;101543.84;;;-3.73;88.30
71716;BME280;59568;52.128;5.434;2022-11-20T01:08:33;101544.81;;;-3.74;88.51
71716;BME280;59568;52.128;5.434;2022-11-20T01:11:06;101538.91;;;-3.75;88.48
71716;BME280;59568;52.128;5.434;2022-11-20T01:13:34;101537.34;;;-3.76;88.48
71716;BME280;59568;52.128;5.434;2022-11-20T01:16:09;101543.41;;;-3.77;88.42
71716;BME280;59568;52.128;5.434;2022-11-20T01:18:37;101539.59;;;-3.81;88.33
71716;BME280;59568;52.128;5.434;2022-11-20T01:21:07;101537.41;;;-3.84;88.34
71716;BME280;59568;52.128;5.434;2022-11-20T01:23:37;101535.97;;;-3.87;88.35
71716;BME280;59568;52.128;5.434;2022-11-20T01:26:07;101528.13;;;-3.85;88.46
71716;BME280;59568;52.128;5.434;2022-11-20T01:28:34;101525.59;;;-3.85;88.59
71716;BME280;59568;52.128;5.434;2022-11-20T01:31:16;101518.28;;;-3.88;88.54
71716;BME280;59568;52.128;5.434;2022-11-20T01:33:45;101531.22;;;-3.90;88.61
71716;BME280;59568;52.128;5.434;2022-11-20T01:36:13;101524.72;;;-3.92;88.72
71716;BME280;59568;52.128;5.434;2022-11-20T01:38:41;101523.41;;;-3.88;89.50
71716;BME280;59568;52.128;5.434;2022-11-20T01:41:09;101530.59;;;-3.54;88.54
71716;BME280;59568;52.128;5.434;2022-11-20T01:43:36;101524.41;;;-3.45;88.22
71716;BME280;59568;52.128;5.434;2022-11-20T01:46:17;101523.09;;;-3.41;87.93
71716;BME280;59568;52.128;5.434;2022-11-20T01:51:22;101524.94;;;-3.49;88.19
71716;BME280;59568;52.128;5.434;2022-11-20T01:53:51;101525.03;;;-3.57;87.93
71716;BME280;59568;52.128;5.434;2022-11-20T01:56:21;101524.41;;;-3.59;88.08
71716;BME280;59568;52.128;5.434;2022-11-20T01:58:52;101525.72;;;-3.64;87.93
71716;BME280;59568;52.128;5.434;2022-11-20T02:01:20;101516.53;;;-3.73;88.08
71716;BME280;59568;52.128;5.434;2022-11-20T02:03:49;101527.28;;;-3.77;87.96
71716;BME280;59568;52.128;5.434;2022-11-20T02:06:24;101520.66;;;-3.87;87.79
71716;BME280;59568;52.128;5.434;2022-11-20T02:08:52;101521.50;;;-3.94;87.61
71716;BME280;59568;52.128;5.434;2022-11-20T02:11:19;101512.97;;;-4.02;87.88
71716;BME280;59568;52.128;5.434;2022-11-20T02:13:46;101521.56;;;-4.03;87.79
71716;BME280;59568;52.128;5.434;2022-11-20T02:16:21;101514.59;;;-4.09;88.05
71716;BME280;59568;52.128;5.434;2022-11-20T02:18:49;101519.28;;;-4.12;87.91
71716;BME280;59568;52.128;5.434;2022-11-20T02:21:54;101514.66;;;-4.17;88.03
71716;BME280;59568;52.128;5.434;2022-11-20T02:24:18;101512.00;;;-4.24;88.22
71716;BME280;59568;52.128;5.434;2022-11-20T02:27:16;101522.38;;;-4.25;88.03
71716;BME280;59568;52.128;5.434;2022-11-20T02:29:53;101521.75;;;-4.27;88.15
71716;BME280;59568;52.128;5.434;2022-11-20T02:32:28;101516.03;;;-4.29;88.12
71716;BME280;59568;52.128;5.434;2022-11-20T02:34:55;101513.19;;;-4.34;88.10
71716;BME280;59568;52.128;5.434;2022-11-20T02:37:29;101504.09;;;-4.37;87.83
71716;BME280;59568;52.128;5.434;2022-11-20T02:39:57;101496.66;;;-4.38;88.24
71716;BME280;59568;52.128;5.434;2022-11-20T02:42:24;101501.75;;;-4.38;88.03
71716;BME280;59568;52.128;5.434;2022-11-20T02:44:51;101495.03;;;-4.39;88.15
71716;BME280;59568;52.128;5.434;2022-11-20T02:47:18;101502.06;;;-4.42;88.24
71716;BME280;59568;52.128;5.434;2022-11-20T02:49:44;101498.91;;;-4.44;87.97
71716;BME280;59568;52.128;5.434;2022-11-20T02:52:11;101497.94;;;-4.43;88.29
71716;BME280;59568;52.128;5.434;2022-11-20T02:54:38;101497.31;;;-4.45;87.88
71716;BME280;59568;52.128;5.434;2022-11-20T02:57:05;101493.97;;;-4.45;87.91
71716;BME280;59568;52.128;5.434;2022-11-20T02:59:32;101487.44;;;-4.48;88.23
71716;BME280;59568;52.128;5.434;2022-11-20T03:01:59;101485.53;;;-4.46;88.01
71716;BME280;59568;52.128;5.434;2022-11-20T03:04:26;101489.84;;;-4.46;88.18
71716;BME280;59568;52.128;5.434;2022-11-20T03:06:52;101483.47;;;-4.50;88.21
71716;BME280;59568;52.128;5.434;2022-11-20T03:09:19;101473.28;;;-4.50;88.15
71716;BME280;59568;52.128;5.434;2022-11-20T03:11:47;101470.91;;;-4.52;88.16
71716;BME280;59568;52.128;5.434;2022-11-20T03:14:14;101470.72;;;-4.50;88.51
71716;BME280;59568;52.128;5.434;2022-11-20T03:16:41;101471.84;;;-4.53;88.44
71716;BME280;59568;52.128;5.434;2022-11-20T03:19:08;101473.78;;;-4.55;88.54
71716;BME280;59568;52.128;5.434;2022-11-20T03:21:35;101473.16;;;-4.57;88.51
71716;BME280;59568;52.128;5.434;2022-11-20T03:24:02;101470.16;;;-4.60;88.73
71716;BME280;59568;52.128;5.434;2022-11-20T03:26:29;101475.75;;;-4.65;88.44
71716;BME280;59568;52.128;5.434;2022-11-20T03:29:02;101474.50;;;-4.69;88.67
71716;BME280;59568;52.128;5.434;2022-11-20T03:31:35;101466.06;;;-4.70;88.45
71716;BME280;59568;52.128;5.434;2022-11-20T03:34:03;101468.16;;;-4.73;88.43
71716;BME280;59568;52.128;5.434;2022-11-20T03:36:30;101462.59;;;-4.77;88.47
71716;BME280;59568;52.128;5.434;2022-11-20T03:38:58;101461.97;;;-4.79;88.53
71716;BME280;59568;52.128;5.434;2022-11-20T03:41:27;101463.44;;;-4.85;88.03
71716;BME280;59568;52.128;5.434;2022-11-20T03:43:57;101461.84;;;-4.86;88.05
71716;BME280;59568;52.128;5.434;2022-11-20T03:46:25;101460.75;;;-4.91;88.09
71716;BME280;59568;52.128;5.434;2022-11-20T03:48:53;101454.25;;;-4.94;88.13
71716;BME280;59568;52.128;5.434;2022-11-20T03:51:23;101445.66;;;-4.93;88.44
71716;BME280;59568;52.128;5.434;2022-11-20T03:53:51;101452.47;;;-4.93;88.10
71716;BME280;59568;52.128;5.434;2022-11-20T03:56:22;101456.63;;;-4.92;88.30
71716;BME280;59568;52.128;5.434;2022-11-20T03:58:50;101445.81;;;-4.94;88.17
71716;BME280;59568;52.128;5.434;2022-11-20T04:01:19;101446.59;;;-4.94;88.26
71716;BME280;59568;52.128;5.434;2022-11-20T04:03:46;101454.06;;;-4.92;88.23
71716;BME280;59568;52.128;5.434;2022-11-20T04:06:16;101451.06;;;-4.96;87.97
71716;BME280;59568;52.128;5.434;2022-11-20T04:08:44;101444.72;;;-5.00;88.35
71716;BME280;59568;52.128;5.434;2022-11-20T04:11:20;101436.28;;;-5.00;88.15
71716;BME280;59568;52.128;5.434;2022-11-20T04:13:50;101431.31;;;-4.94;88.21
71716;BME280;59568;52.128;5.434;2022-11-20T04:16:18;101440.25;;;-4.98;88.53
71716;BME280;59568;52.128;5.434;2022-11-20T04:18:45;101440.25;;;-4.98;88.69
71716;BME280;59568;52.128;5.434;2022-11-20T04:21:12;101428.78;;;-5.02;88.29
71716;BME280;59568;52.128;5.434;2022-11-20T04:23:39;101436.44;;;-5.02;88.37
71716;BME280;59568;52.128;5.434;2022-11-20T04:26:08;101429.75;;;-5.03;88.30
71716;BME280;59568;52.128;5.434;2022-11-20T04:28:36;101420.38;;;-5.03;88.42
71716;BME280;59568;52.128;5.434;2022-11-20T04:31:11;101448.41;;;-5.03;88.74
71716;BME280;59568;52.128;5.434;2022-11-20T04:33:39;101452.25;;;-5.07;88.60
71716;BME280;59568;52.128;5.434;2022-11-20T04:36:26;101441.41;;;-5.09;88.60
71716;BME280;59568;52.128;5.434;2022-11-20T04:38:55;101437.44;;;-5.11;88.87
71716;BME280;59568;52.128;5.434;2022-11-20T04:41:25;101434.44;;;-5.15;88.80
71716;BME280;59568;52.128;5.434;2022-11-20T04:43:55;101418.69;;;-5.18;88.47
71716;BME280;59568;52.128;5.434;2022-11-20T04:46:27;101418.69;;;-5.18;89.17
71716;BME280;59568;52.128;5.434;2022-11-20T04:48:54;101416.31;;;-5.20;88.83
71716;BME280;59568;52.128;5.434;2022-11-20T04:51:21;101416.31;;;-5.20;88.93
71716;BME280;59568;52.128;5.434;2022-11-20T04:53:48;101416.94;;;-5.18;88.88
71716;BME280;59568;52.128;5.434;2022-11-20T04:56:16;101415.16;;;-5.17;88.97
71716;BME280;59568;52.128;5.434;2022-11-20T04:58:43;101406.63;;;-5.25;88.75
71716;BME280;59568;52.128;5.434;2022-11-20T05:01:15;101406.78;;;-5.26;88.66
71716;BME280;59568;52.128;5.434;2022-11-20T05:03:43;101401.53;;;-5.25;89.19
71716;BME280;59568;52.128;5.434;2022-11-20T05:06:13;101414.56;;;-5.28;89.29
71716;BME280;59568;52.128;5.434;2022-11-20T05:08:41;101411.41;;;-5.30;88.91
71716;BME280;59568;52.128;5.434;2022-11-20T05:11:10;101411.09;;;-5.27;89.10
71716;BME280;59568;52.128;5.434;2022-11-20T05:13:37;101409.47;;;-5.28;89.25
71716;BME280;59568;52.128;5.434;2022-11-20T05:16:07;101405.69;;;-5.32;88.95
71716;BME280;59568;52.128;5.434;2022-11-20T05:18:36;101413.66;;;-5.35;89.07
71716;BME280;59568;52.128;5.434;2022-11-20T05:21:03;101411.13;;;-5.35;89.09
71716;BME280;59568;52.128;5.434;2022-11-20T05:23:31;101415.75;;;-5.38;89.00
71716;BME280;59568;52.128;5.434;2022-11-20T05:25:58;101408.09;;;-5.38;89.17
71716;BME280;59568;52.128;5.434;2022-11-20T05:28:27;101391.09;;;-5.46;89.06
71716;BME280;59568;52.128;5.434;2022-11-20T05:30:54;101385.06;;;-5.45;89.14
71716;BME280;59568;52.128;5.434;2022-11-20T05:33:21;101385.69;;;-5.43;89.24
71716;BME280;59568;52.128;5.434;2022-11-20T05:35:48;101383.94;;;-5.43;89.18
71716;BME280;59568;52.128;5.434;2022-11-20T05:38:16;101380.59;;;-5.43;89.32
71716;BME280;59568;52.128;5.434;2022-11-20T05:40:43;101376.44;;;-5.44;89.13
71716;BME280;59568;52.128;5.434;2022-11-20T05:43:10;101372.31;;;-5.45;89.02
71716;BME280;59568;52.128;5.434;2022-11-20T05:45:37;101368.19;;;-5.46;89.41
71716;BME280;59568;52.128;5.434;2022-11-20T05:48:04;101367.56;;;-5.48;89.21
71716;BME280;59568;52.128;5.434;2022-11-20T05:50:31;101381.69;;;-5.46;88.97
71716;BME280;59568;52.128;5.434;2022-11-20T05:52:58;101394.63;;;-5.47;89.07
71716;BME280;59568;52.128;5.434;2022-11-20T05:55:26;101393.03;;;-5.48;89.41
71716;BME280;59568;52.128;5.434;2022-11-20T05:57:54;101399.41;;;-5.52;89.13
71716;BME280;59568;52.128;5.434;2022-11-20T06:00:22;101397.00;;;-5.54;89.25
71716;BME280;59568;52.128;5.434;2022-11-20T06:02:48;101403.06;;;-5.55;88.99
71716;BME280;59568;52.128;5.434;2022-11-20T06:05:16;101403.53;;;-5.59;88.97
71716;BME280;59568;52.128;5.434;2022-11-20T06:07:43;101406.44;;;-5.63;88.86
71716;BME280;59568;52.128;5.434;2022-11-20T06:10:10;101403.56;;;-5.68;88.73
71716;BME280;59568;52.128;5.434;2022-11-20T06:12:37;101412.19;;;-5.69;88.54
71716;BME280;59568;52.128;5.434;2022-11-20T06:15:04;101413.13;;;-5.70;88.87
71716;BME280;59568;52.128;5.434;2022-11-20T06:17:32;101417.59;;;-5.72;88.39
71716;BME280;59568;52.128;5.434;2022-11-20T06:19:58;101423.03;;;-5.75;88.25
71716;BME280;59568;52.128;5.434;2022-11-20T06:22:25;101421.09;;;-5.73;88.54
71716;BME280;59568;52.128;5.434;2022-11-20T06:24:52;101420.31;;;-5.73;88.60
71716;BME280;59568;52.128;5.434;2022-11-20T06:27:19;101415.84;;;-5.79;88.44
71716;BME280;59568;52.128;5.434;2022-11-20T06:29:46;101416.50;;;-5.77;88.79
71716;BME280;59568;52.128;5.434;2022-11-20T06:32:13;101412.38;;;-5.78;88.84
71716;BME280;59568;52.128;5.434;2022-11-20T06:34:40;101413.78;;;-5.76;88.73
71716;BME280;59568;52.128;5.434;2022-11-20T06:37:06;101413.97;;;-5.77;88.80
71716;BME280;59568;52.128;5.434;2022-11-20T06:39:33;101408.88;;;-5.77;88.86
71716;BME280;59568;52.128;5.434;2022-11-20T06:42:00;101406.78;;;-5.82;89.01
71716;BME280;59568;52.128;5.434;2022-11-20T06:44:27;101412.38;;;-5.78;88.89
71716;BME280;59568;52.128;5.434;2022-11-20T06:46:54;101424.47;;;-5.80;88.89
71716;BME280;59568;52.128;5.434;2022-11-20T06:49:21;101423.97;;;-5.84;88.89
71716;BME280;59568;52.128;5.434;2022-11-20T06:51:48;101414.78;;;-5.85;88.53
71716;BME280;59568;52.128;5.434;2022-11-20T06:54:15;101422.22;;;-5.84;88.71
71716;BME280;59568;52.128;5.434;2022-11-20T06:56:41;101416.97;;;-5.82;88.85
71716;BME280;59568;52.128;5.434;2022-11-20T06:59:08;101405.22;;;-5.83;88.75
71716;BME280;59568;52.128;5.434;2022-11-20T07:01:35;101409.81;;;-5.78;88.71
71716;BME280;59568;52.128;5.434;2022-11-20T07:04:02;101393.13;;;-5.81;89.00
71716;BME280;59568;52.128;5.434;2022-11-20T07:06:29;101398.69;;;-5.77;88.87
71716;BME280;59568;52.128;5.434;2022-11-20T07:08:56;101398.19;;;-5.73;88.81
71716;BME280;59568;52.128;5.434;2022-11-20T07:11:24;101399.63;;;-5.70;89.36
71716;BME280;59568;52.128;5.434;2022-11-20T07:13:51;101396.28;;;-5.71;89.01
71716;BME280;59568;52.128;5.434;2022-11-20T07:16:18;101390.22;;;-5.70;89.46
71716;BME280;59568;52.128;5.434;2022-11-20T07:18:44;101391.97;;;-5.70;89.44
71716;BME280;59568;52.128;5.434;2022-11-20T07:21:16;101390.22;;;-5.70;89.12
71716;BME280;59568;52.128;5.434;2022-11-20T07:23:43;101393.41;;;-5.68;89.33
71716;BME280;59568;52.128;5.434;2022-11-20T07:26:11;101397.38;;;-5.65;89.54
71716;BME280;59568;52.128;5.434;2022-11-20T07:28:38;101401.50;;;-5.64;89.27
71716;BME280;59568;52.128;5.434;2022-11-20T07:31:05;101389.25;;;-5.60;89.30
71716;BME280;59568;52.128;5.434;2022-11-20T07:33:34;101386.69;;;-5.60;89.08
71716;BME280;59568;52.128;5.434;2022-11-20T07:36:01;101372.19;;;-5.52;89.86
71716;BME280;59568;52.128;5.434;2022-11-20T07:38:28;101372.66;;;-5.48;89.83
71716;BME280;59568;52.128;5.434;2022-11-20T07:40:56;101374.69;;;-5.44;89.53
71716;BME280;59568;52.128;5.434;2022-11-20T07:43:24;101378.47;;;-5.39;89.69
71716;BME280;59568;52.128;5.434;2022-11-20T07:45:51;101376.25;;;-5.34;89.80
71716;BME280;59568;52.128;5.434;2022-11-20T07:48:18;101372.56;;;-5.32;89.85
71716;BME280;59568;52.128;5.434;2022-11-20T07:50:45;101384.97;;;-5.29;89.67
71716;BME280;59568;52.128;5.434;2022-11-20T07:53:12;101380.69;;;-5.28;89.70
71716;BME280;59568;52.128;5.434;2022-11-20T07:55:40;101382.38;;;-5.20;89.79
71716;BME280;59568;52.128;5.434;2022-11-20T07:58:07;101387.75;;;-5.15;89.57
71716;BME280;59568;52.128;5.434;2022-11-20T08:00:34;101396.66;;;-5.11;89.59
71716;BME280;59568;52.128;5.434;2022-11-20T08:03:03;101390.72;;;-5.04;89.62
71716;BME280;59568;52.128;5.434;2022-11-20T08:05:31;101393.75;;;-5.00;89.74
71716;BME280;59568;52.128;5.434;2022-11-20T08:07:58;101385.78;;;-4.97;89.36
71716;BME280;59568;52.128;5.434;2022-11-20T08:10:25;101375.06;;;-4.92;89.57
71716;BME280;59568;52.128;5.434;2022-11-20T08:12:52;101378.34;;;-4.84;89.62
71716;BME280;59568;52.128;5.434;2022-11-20T08:15:39;101367.47;;;-4.77;89.70
71716;BME280;59568;52.128;5.434;2022-11-20T08:18:09;101368.22;;;-4.69;90.16
71716;BME280;59568;52.128;5.434;2022-11-20T08:20:57;101379.31;;;-4.62;90.38
71716;BME280;59568;52.128;5.434;2022-11-20T08:23:24;101369.19;;;-4.55;90.49
71716;BME280;59568;52.128;5.434;2022-11-20T08:25:51;101368.81;;;-4.44;90.39
71716;BME280;59568;52.128;5.434;2022-11-20T08:28:18;101365.72;;;-4.39;90.42
71716;BME280;59568;52.128;5.434;2022-11-20T08:30:48;101368.81;;;-4.29;90.54
71716;BME280;59568;52.128;5.434;2022-11-20T08:33:15;101365.06;;;-4.18;90.68
71716;BME280;59568;52.128;5.434;2022-11-20T08:35:44;101366.38;;;-4.07;90.56
71716;BME280;59568;52.128;5.434;2022-11-20T08:38:11;101368.84;;;-3.99;90.83
71716;BME280;59568;52.128;5.434;2022-11-20T08:40:38;101375.03;;;-3.93;90.93
71716;BME280;59568;52.128;5.434;2022-11-20T08:43:04;101376.53;;;-3.84;91.21
71716;BME280;59568;52.128;5.434;2022-11-20T08:45:31;101367.81;;;-3.75;91.04
71716;BME280;59568;52.128;5.434;2022-11-20T08:48:03;101374.13;;;-3.71;91.19
71716;BME280;59568;52.128;5.434;2022-11-20T08:50:31;101370.09;;;-3.65;91.19
71716;BME280;59568;52.128;5.434;2022-11-20T08:53:04;101371.75;;;-3.57;91.29
71716;BME280;59568;52.128;5.434;2022-11-20T08:55:31;101367.16;;;-3.47;91.27
71716;BME280;59568;52.128;5.434;2022-11-20T08:58:03;101361.16;;;-3.39;91.50
71716;BME280;59568;52.128;5.434;2022-11-20T09:00:30;101359.66;;;-3.34;91.63
71716;BME280;59568;52.128;5.434;2022-11-20T09:02:57;101360.28;;;-3.32;91.48
71716;BME280;59568;52.128;5.434;2022-11-20T09:05:25;101357.00;;;-3.26;91.25
71716;BME280;59568;52.128;5.434;2022-11-20T09:07:55;101360.41;;;-3.18;91.72
71716;BME280;59568;52.128;5.434;2022-11-20T09:10:22;101361.25;;;-3.11;91.55
71716;BME280;59568;52.128;5.434;2022-11-20T09:12:51;101355.44;;;-3.05;91.73
71716;BME280;59568;52.128;5.434;2022-11-20T09:15:19;101359.03;;;-2.99;91.59
71716;BME280;59568;52.128;5.434;2022-11-20T09:17:53;101355.53;;;-2.92;91.26
71716;BME280;59568;52.128;5.434;2022-11-20T09:20:20;101352.28;;;-2.86;91.66
71716;BME280;59568;52.128;5.434;2022-11-20T09:22:47;101356.84;;;-2.81;91.32
71716;BME280;59568;52.128;5.434;2022-11-20T09:25:14;101344.25;;;-2.76;91.85
71716;BME280;59568;52.128;5.434;2022-11-20T09:27:41;101333.72;;;-2.66;91.80
71716;BME280;59568;52.128;5.434;2022-11-20T09:30:11;101333.22;;;-2.55;91.46
71716;BME280;59568;52.128;5.434;2022-11-20T09:32:38;101322.84;;;-2.47;91.62
71716;BME280;59568;52.128;5.434;2022-11-20T09:35:05;101309.72;;;-2.37;91.89
71716;BME280;59568;52.128;5.434;2022-11-20T09:37:33;101306.84;;;-2.27;92.03
71716;BME280;59568;52.128;5.434;2022-11-20T09:39:59;101311.59;;;-2.17;92.19
71716;BME280;59568;52.128;5.434;2022-11-20T09:42:45;101316.19;;;-2.06;91.98
71716;BME280;59568;52.128;5.434;2022-11-20T09:48:13;101304.66;;;-1.89;92.15
71716;BME280;59568;52.128;5.434;2022-11-20T09:55:56;101299.22;;;-1.59;92.89
71716;BME280;59568;52.128;5.434;2022-11-20T09:58:44;101300.66;;;-1.50;92.61
71716;BME280;59568;52.128;5.434;2022-11-20T10:01:17;101300.66;;;-1.43;91.84
71716;BME280;59568;52.128;5.434;2022-11-20T10:06:27;101286.31;;;-1.31;91.52
71716;BME280;59568;52.128;5.434;2022-11-20T10:09:06;101282.97;;;-1.25;91.82
71716;BME280;59568;52.128;5.434;2022-11-20T10:23:04;101268.19;;;-0.89;91.61
71716;BME280;59568;52.128;5.434;2022-11-20T10:25:45;101270.53;;;-0.81;92.26
71716;BME280;59568;52.128;5.434;2022-11-20T10:28:45;101257.50;;;-0.79;91.61
71716;BME280;59568;52.128;5.434;2022-11-20T10:31:36;101245.84;;;-0.69;91.94
71716;BME280;59568;52.128;5.434;2022-11-20T10:36:55;101238.91;;;-0.55;91.95
71716;BME280;59568;52.128;5.434;2022-11-20T10:42:36;101224.91;;;-0.52;91.48
71716;BME280;59568;52.128;5.434;2022-11-20T10:47:49;101227.25;;;-0.51;91.50
71716;BME280;59568;52.128;5.434;2022-11-20T10:50:19;101226.09;;;-0.48;91.41
71716;BME280;59568;52.128;5.434;2022-11-20T10:55:46;101203.09;;;-0.36;91.61
71716;BME280;59568;52.128;5.434;2022-11-20T10:58:24;101201.50;;;-0.31;91.55
71716;BME280;59568;52.128;5.434;2022-11-20T11:01:16;101195.38;;;-0.23;91.40
71716;BME280;59568;52.128;5.434;2022-11-20T11:03:44;101193.75;;;-0.17;91.61
71716;BME280;59568;52.128;5.434;2022-11-20T11:06:35;101194.16;;;-0.14;91.58
71716;BME280;59568;52.128;5.434;2022-11-20T11:09:13;101190.91;;;-0.03;91.63
71716;BME280;59568;52.128;5.434;2022-11-20T11:11:46;101184.59;;;0.00;91.51
71716;BME280;59568;52.128;5.434;2022-11-20T11:14:14;101180.63;;;0.04;91.83
71716;BME280;59568;52.128;5.434;2022-11-20T11:16:53;101180.56;;;0.11;91.54
71716;BME280;59568;52.128;5.434;2022-11-20T11:19:21;101171.03;;;0.18;91.78
71716;BME280;59568;52.128;5.434;2022-11-20T11:21:54;101169.00;;;0.27;91.86
71716;BME280;59568;52.128;5.434;2022-11-20T11:24:25;101160.66;;;0.31;91.60
71716;BME280;59568;52.128;5.434;2022-11-20T11:27:13;101144.84;;;0.34;91.93
71716;BME280;59568;52.128;5.434;2022-11-20T11:29:44;101145.81;;;0.33;91.60
71716;BME280;59568;52.128;5.434;2022-11-20T11:32:21;101139.66;;;0.41;91.85
71716;BME280;59568;52.128;5.434;2022-11-20T11:35:06;101138.38;;;0.50;92.16
71716;BME280;59568;52.128;5.434;2022-11-20T11:37:35;101135.19;;;0.55;92.21
71716;BME280;59568;52.128;5.434;2022-11-20T11:40:04;101119.31;;;0.58;92.00
71716;BME280;59568;52.128;5.434;2022-11-20T11:42:56;101108.06;;;0.59;91.88
71716;BME280;59568;52.128;5.434;2022-11-20T11:45:25;101104.25;;;0.62;92.29
71716;BME280;59568;52.128;5.434;2022-11-20T11:47:56;101111.00;;;0.63;92.26
71716;BME280;59568;52.128;5.434;2022-11-20T11:50:26;101105.97;;;0.68;92.10
71716;BME280;59568;52.128;5.434;2022-11-20T11:53:12;101115.22;;;0.75;91.98
71716;BME280;59568;52.128;5.434;2022-11-20T11:55:46;101097.78;;;0.77;92.33
71716;BME280;59568;52.128;5.434;2022-11-20T11:58:40;101094.78;;;0.81;92.43
71716;BME280;59568;52.128;5.434;2022-11-20T12:04:27;101092.56;;;0.84;92.13
71716;BME280;59568;52.128;5.434;2022-11-20T12:07:38;101083.41;;;0.88;92.47
71716;BME280;59568;52.128;5.434;2022-11-20T12:10:38;101072.63;;;0.98;92.59
71716;BME280;59568;52.128;5.434;2022-11-20T12:15:47;101052.88;;;1.10;93.03
71716;BME280;59568;52.128;5.434;2022-11-20T12:18:17;101059.97;;;1.15;92.66
71716;BME280;59568;52.128;5.434;2022-11-20T12:29:58;101049.69;;;1.45;92.96
71716;BME280;59568;52.128;5.434;2022-11-20T12:40:38;101039.50;;;1.50;92.96
71716;BME280;59568;52.128;5.434;2022-11-20T12:43:24;101029.66;;;1.47;93.00
71716;BME280;59568;52.128;5.434;2022-11-20T12:46:35;101026.50;;;1.45;93.15
71716;BME280;59568;52.128;5.434;2022-11-20T12:55:03;100992.53;;;1.36;93.25
71716;BME280;59568;52.128;5.434;2022-11-20T13:00:20;100977.56;;;1.33;93.66
71716;BME280;59568;52.128;5.434;2022-11-20T13:06:20;100964.00;;;1.38;93.84
71716;BME280;59568;52.128;5.434;2022-11-20T13:08:56;100962.00;;;1.40;94.11
71716;BME280;59568;52.128;5.434;2022-11-20T13:14:57;100956.53;;;1.48;94.44
71716;BME280;59568;52.128;5.434;2022-11-20T13:17:37;100951.38;;;1.48;94.74
71716;BME280;59568;52.128;5.434;2022-11-20T13:20:13;100948.59;;;1.50;94.53
71716;BME280;59568;52.128;5.434;2022-11-20T13:22:44;100933.34;;;1.48;94.88
71716;BME280;59568;52.128;5.434;2022-11-20T13:27:53;100925.84;;;1.47;95.16
71716;BME280;59568;52.128;5.434;2022-11-20T13:30:28;100919.91;;;1.46;95.50
71716;BME280;59568;52.128;5.434;2022-11-20T13:33:01;100919.69;;;1.48;95.26
71716;BME280;59568;52.128;5.434;2022-11-20T13:35:33;100924.63;;;1.49;95.46
71716;BME280;59568;52.128;5.434;2022-11-20T13:38:06;100916.91;;;1.49;95.24
71716;BME280;59568;52.128;5.434;2022-11-20T13:43:35;100925.75;;;1.53;95.83
71716;BME280;59568;52.128;5.434;2022-11-20T13:46:05;100908.16;;;1.50;95.46
71716;BME280;59568;52.128;5.434;2022-11-20T13:48:45;100901.22;;;1.51;95.52
71716;BME280;59568;52.128;5.434;2022-11-20T13:51:50;100891.72;;;1.51;95.75
71716;BME280;59568;52.128;5.434;2022-11-20T13:57:46;100892.38;;;1.47;95.71
71716;BME280;59568;52.128;5.434;2022-11-20T14:00:22;100889.00;;;1.46;96.21
71716;BME280;59568;52.128;5.434;2022-11-20T14:06:21;100894.50;;;1.50;95.87
71716;BME280;59568;52.128;5.434;2022-11-20T14:09:31;100895.28;;;1.50;96.09
71716;BME280;59568;52.128;5.434;2022-11-20T14:12:00;100896.06;;;1.51;96.41
71716;BME280;59568;52.128;5.434;2022-11-20T14:14:29;100885.88;;;1.56;96.27
71716;BME280;59568;52.128;5.434;2022-11-20T14:17:19;100865.72;;;1.53;96.07
71716;BME280;59568;52.128;5.434;2022-11-20T14:19:49;100862.03;;;1.49;96.16
71716;BME280;59568;52.128;5.434;2022-11-20T14:22:22;100851.72;;;1.49;96.16
71716;BME280;59568;52.128;5.434;2022-11-20T14:28:05;100801.38;;;1.41;96.40
71716;BME280;59568;52.128;5.434;2022-11-20T14:30:56;100822.97;;;1.40;96.45
71716;BME280;59568;52.128;5.434;2022-11-20T14:33:29;100832.50;;;1.39;96.35
71716;BME280;59568;52.128;5.434;2022-11-20T14:44:13;100808.06;;;1.42;96.78
71716;BME280;59568;52.128;5.434;2022-11-20T14:46:40;100809.09;;;1.41;96.81
71716;BME280;59568;52.128;5.434;2022-11-20T14:49:19;100809.66;;;1.43;96.99
71716;BME280;59568;52.128;5.434;2022-11-20T14:52:12;100796.09;;;1.48;97.25